AirNav   TITAN Aviation Fuels
 
 1595 users online  

15MA Canapitsit Airport
Gosnold, Massachusetts, USA

GOING TO GOSNOLD?


FAA INFORMATION EFFECTIVE 01 DECEMBER 2022

Location

FAA Identifier: 15MA
Lat/Long: 41-25-20.3880N 070-54-34.1240W
41-25.339800N 070-54.568733W
41.4223300,-70.9094789
(estimated)
Elevation: 10 ft. / 3 m (estimated)
Variation: 15W (1990)
From city: 1 mile E of GOSNOLD, MA
Time zone: UTC -5 (UTC -4 during Daylight Saving Time)
Zip code: 02713

Airport Operations

Airport use: Private use. Permission required prior to landing
Activation date: 01/1993
Control tower: no
ARTCC: BOSTON CENTER
FSS: BRIDGEPORT FLIGHT SERVICE STATION
Attendance: UNATNDD
Wind indicator: yes
Segmented circle: no

Airport Communications

WX ASOS at MVY (13 nm E): 126.25 (508-696-6988)
WX ASOS at EWB (15 nm N): 126.85 (508-992-0195)
WX ASOS at UUU (18 nm W): 132.075 (401-846-5910)

Nearby radio navigation aids

VOR radial/distance  VOR name  Freq  Var
MVYr292/13.4MARTHAS VINEYARD VOR/DME114.5015W
PVDr142/29.6PROVIDENCE VOR/DME115.6014W
SEYr078/33.7SANDY POINT VOR/DME117.8015W

Airport Services

Runway Information

Runway 12/30

Dimensions: 700 x 20 ft. / 213 x 6 m
Surface: turf
RUNWAY 12  RUNWAY 30
Traffic pattern: leftleft

Airport Ownership and Management from official FAA records

Ownership: Privately-owned
Owner: MELBOURNE S DORR
15 GILMORE RD
SOUTHBOROUGH, MA 01772
Phone 508-877-0030
Manager: MELBOURNE S DORR
15 GILMORE RD
SOUTHBOROUGH, MA 01772
Phone 508-877-0030

Additional Remarks

HIGH GRASS IN PRIMARY SURFACE OF BOTH RYS. HIGH DUNE IN RY 12 APCH.
FOR CD CTC BOSTON APCH AT 603-594-5551, WHEN APCH CLSD CTC BOSTON ARTCC AT 603-879-6859..

Instrument Procedures

There are no published instrument procedures at 15MA.

Some nearby airports with instrument procedures:

KMVY - Martha's Vineyard Airport (13 nm E)
KEWB - New Bedford Regional Airport (15 nm N)
KUUU - Newport State Airport (18 nm W)
5B6 - Falmouth Airpark (19 nm NE)
KFMH - Cape Cod Coast Guard Air Station (22 nm NE)
 
Loc | Ops | Rwys | IFR | FBO | Links
Com | Nav | Svcs | Stats | Notes
Area around 15MA (Canapitsit Airport)
 
Road maps at: MapQuest Bing Google
 
Aerial photo
No photo
 
Sectional chart

 
Airport distance calculator
Flying to Canapitsit Airport? Find the distance to fly.

From to 15MA

Sunrise and sunset
Times for 06-Dec-2022
 Local
(UTC-5)
 Zulu
(UTC)
Morning civil twilight06:2511:25
Sunrise06:5611:56
Sunset16:1321:13
Evening civil twilight16:4421:44

Current date and time
Zulu (UTC)  06-Dec-2022 18:31:32
Local (UTC-5)  06-Dec-2022 13:31:32
 
METAR
KMVY 
13nm E 
061753Z 14013G21KT 10SM CLR 13/08 A3041 RMK AO2 SLP296 T01330083 10133 20100 55011
KEWB 
16nm N 
061753Z 13012G18KT 10SM FEW055 13/08 A3039 RMK AO2 SLP289 T01330078 10133 20083 56015
KUUU 
18nm W 
061553Z AUTO 13010KT 10SM CLR 11/08 A3039 RMK AO2 SLP289 T01110083
KFMH 
22nm NE 
061757Z 12012G22KT 10SM CLR 12/08 A3041
KOQU 
25nm NW 
061750Z 16017KT 10SM SCT055 OVC220 13/07 A3038
TAF
KFMH 
22nm NE 
061729Z 0618/0718 13010G18KT P6SM BKN200 FM071000 12006KT 6SM -SHRA BR OVC035 FM071200 13006KT 5SM -SHRA BR OVC025 FM071400 14007KT 4SM BR VCSH OVC020 FM071700 16009KT 5SM -SHRA BR OVC020
NOTAMs
Click for the latest NOTAMs
NOTAMs are issued by the DoD/FAA and will open in a separate window not controlled by AirNav.

 

 
 

Would you like to see your business listed on this page?

 If your business provides an interesting product or service to pilots, flight crews, aircraft, or users of the Canapitsit Airport, you should consider listing it here.  To start the listing process, click on the button below
 
Add a business
 

Other Pages about Canapitsit Airport

Update a link
 
Copyright © AirNav, LLC. All rights reserved. Privacy Policy  Contact